createdAt,value
2022-12-17T00:00:28.096Z,98389.94
2022-12-17T00:03:14.597Z,98390.16
2022-12-17T00:05:56.539Z,98395.00
2022-12-17T00:08:41.616Z,98407.00
2022-12-17T00:11:23.477Z,98404.94
2022-12-17T00:14:05.475Z,98405.25
2022-12-17T00:16:47.538Z,98411.09
2022-12-17T00:19:29.300Z,98413.66
2022-12-17T00:22:11.105Z,98412.00
2022-12-17T00:24:52.903Z,98428.50
2022-12-17T00:27:38.303Z,98422.13
2022-12-17T00:30:20.596Z,98424.25
2022-12-17T00:33:02.656Z,98427.31
2022-12-17T00:35:44.740Z,98432.38
2022-12-17T00:38:31.830Z,98429.94
2022-12-17T00:41:13.660Z,98442.94
2022-12-17T00:43:55.697Z,98447.81
2022-12-17T00:46:38.302Z,98445.38
2022-12-17T00:49:20.279Z,98444.69
2022-12-17T00:52:02.350Z,98457.22
2022-12-17T00:54:44.165Z,98461.09
2022-12-17T00:57:26.303Z,98474.09
2022-12-17T01:00:08.248Z,98472.59
2022-12-17T01:02:51.348Z,98470.97
2022-12-17T01:05:34.140Z,98472.50
2022-12-17T01:08:31.486Z,98481.28
2022-12-17T01:11:16.438Z,98474.75
2022-12-17T01:13:58.446Z,98475.06
2022-12-17T01:16:40.589Z,98487.09
2022-12-17T01:19:22.532Z,98489.59
2022-12-17T01:22:04.616Z,98491.16
2022-12-17T01:24:46.638Z,98498.97
2022-12-17T01:27:28.701Z,98501.50
2022-12-17T01:30:11.001Z,98499.94
2022-12-17T01:32:53.015Z,98509.50
2022-12-17T01:35:34.858Z,98514.72
2022-12-17T01:38:16.897Z,98522.97
2022-12-17T01:40:58.935Z,98514.88
2022-12-17T01:43:50.447Z,98518.16
2022-12-17T01:46:33.280Z,98529.06
2022-12-17T01:49:15.333Z,98529.06
2022-12-17T01:52:01.875Z,98528.09
2022-12-17T01:54:43.765Z,98525.81
2022-12-17T01:57:25.797Z,98524.00
2022-12-17T02:00:25.814Z,98520.22
2022-12-17T02:03:12.469Z,98532.84
2022-12-17T02:06:08.052Z,98536.63
2022-12-17T02:09:03.142Z,98539.38
2022-12-17T02:11:56.220Z,98540.72
2022-12-17T02:14:48.476Z,98543.25
2022-12-17T02:17:35.145Z,98542.84
2022-12-17T02:20:33.335Z,98540.50
2022-12-17T02:23:16.382Z,98550.09
2022-12-17T02:26:13.070Z,98556.72
2022-12-17T02:28:59.961Z,98555.59
2022-12-17T02:31:43.329Z,98554.47
2022-12-17T02:34:25.342Z,98553.34
2022-12-17T02:37:07.347Z,98558.84
2022-12-17T02:39:49.168Z,98562.72
2022-12-17T02:42:32.221Z,98556.41
2022-12-17T02:45:14.298Z,98563.56
2022-12-17T02:47:57.113Z,98568.19
2022-12-17T02:50:39.375Z,98579.47
2022-12-17T02:53:22.501Z,98585.09
2022-12-17T02:56:04.505Z,98578.25
2022-12-17T02:58:47.355Z,98588.22
2022-12-17T03:01:29.719Z,98594.69
2022-12-17T03:04:11.712Z,98602.56
2022-12-17T03:06:53.742Z,98597.91
2022-12-17T03:09:35.560Z,98610.81
2022-12-17T03:12:17.560Z,98612.25
2022-12-17T03:14:59.387Z,98620.63
2022-12-17T03:17:41.427Z,98623.78
2022-12-17T03:20:24.265Z,98621.56
2022-12-17T03:23:06.283Z,98629.84
2022-12-17T03:25:48.150Z,98631.50
2022-12-17T03:28:30.098Z,98630.63
2022-12-17T03:31:14.289Z,98637.00
2022-12-17T03:34:00.918Z,98639.75
2022-12-17T03:36:43.177Z,98640.34
2022-12-17T03:39:24.940Z,98639.38
2022-12-17T03:42:07.073Z,98644.97
2022-12-17T03:44:49.095Z,98649.22
2022-12-17T03:47:31.091Z,98644.97
2022-12-17T03:50:13.166Z,98645.63
2022-12-17T03:52:55.186Z,98653.88
2022-12-17T03:55:37.022Z,98647.28
2022-12-17T03:58:19.087Z,98653.50
2022-12-17T04:01:01.155Z,98655.81
2022-12-17T04:03:43.172Z,98664.13
2022-12-17T04:06:25.228Z,98666.34
2022-12-17T04:09:10.333Z,98675.13
2022-12-17T04:11:52.378Z,98680.06
2022-12-17T04:14:34.397Z,98683.91
2022-12-17T04:17:16.209Z,98698.25
2022-12-17T04:19:57.963Z,98698.53
2022-12-17T04:22:39.821Z,98698.84
2022-12-17T04:25:22.114Z,98710.59
2022-12-17T04:28:04.144Z,98711.50
2022-12-17T04:30:45.981Z,98712.53
2022-12-17T04:33:28.252Z,98715.63
2022-12-17T04:36:10.307Z,98716.75
2022-12-17T04:38:52.327Z,98721.78
2022-12-17T04:41:34.401Z,98725.53
2022-12-17T04:44:16.423Z,98724.84
2022-12-17T04:46:58.747Z,98728.66
2022-12-17T04:49:40.798Z,98729.13
2022-12-17T04:52:22.587Z,98723.34
2022-12-17T04:55:04.648Z,98732.69
2022-12-17T04:57:46.683Z,98739.41
2022-12-17T05:00:29.191Z,98745.56
2022-12-17T05:03:11.095Z,98741.31
2022-12-17T05:05:53.086Z,98742.13
2022-12-17T05:08:39.738Z,98748.66
2022-12-17T05:11:23.348Z,98741.56
2022-12-17T05:14:05.361Z,98747.97
2022-12-17T05:16:47.425Z,98752.91
2022-12-17T05:19:31.290Z,98748.81
2022-12-17T05:22:13.271Z,98759.63
2022-12-17T05:24:55.116Z,98753.88
2022-12-17T05:27:37.122Z,98768.69
2022-12-17T05:30:19.702Z,98765.94
2022-12-17T05:33:01.746Z,98772.09
2022-12-17T05:35:43.885Z,98783.88
2022-12-17T05:38:26.618Z,98784.19
2022-12-17T05:41:12.242Z,98788.16
2022-12-17T05:43:54.040Z,98789.38
2022-12-17T05:46:36.399Z,98806.63
2022-12-17T05:49:18.399Z,98804.59
2022-12-17T05:52:00.429Z,98813.19
2022-12-17T05:54:42.748Z,98813.63
2022-12-17T05:57:24.800Z,98822.50
2022-12-17T06:00:06.586Z,98822.50
2022-12-17T06:02:48.442Z,98830.34
2022-12-17T06:05:30.429Z,98837.16
2022-12-17T06:08:27.799Z,98831.97
2022-12-17T06:11:10.155Z,98838.69
2022-12-17T06:13:52.150Z,98849.06
2022-12-17T06:16:33.998Z,98845.25
2022-12-17T06:19:15.996Z,98849.91
2022-12-17T06:21:57.847Z,98849.50
2022-12-17T06:24:45.554Z,98854.84
2022-12-17T06:27:28.060Z,98855.22
2022-12-17T06:30:14.260Z,98864.28
2022-12-17T06:33:00.311Z,98867.72
2022-12-17T06:35:42.424Z,98872.63
2022-12-17T06:38:24.431Z,98884.25
2022-12-17T06:41:07.771Z,98886.06
2022-12-17T06:43:49.780Z,98897.38
2022-12-17T06:46:31.646Z,98897.81
2022-12-17T06:49:13.668Z,98906.97
2022-12-17T06:51:55.687Z,98908.63
2022-12-17T06:54:37.522Z,98914.78
2022-12-17T06:57:19.517Z,98921.50
2022-12-17T07:00:01.329Z,98925.88
2022-12-17T07:02:43.534Z,98930.13
2022-12-17T07:05:25.680Z,98934.75
2022-12-17T07:08:15.675Z,98933.41
2022-12-17T07:10:57.701Z,98937.91
2022-12-17T07:13:39.972Z,98939.13
2022-12-17T07:16:22.862Z,98936.41
2022-12-17T07:19:04.892Z,98949.00
2022-12-17T07:21:46.906Z,98950.63
2022-12-17T07:24:28.728Z,98958.84
2022-12-17T07:27:10.744Z,98961.03
2022-12-17T07:29:52.578Z,98966.53
2022-12-17T07:32:34.595Z,98968.97
2022-12-17T07:35:16.686Z,98967.63
2022-12-17T07:37:58.708Z,98975.00
2022-12-17T07:40:40.759Z,98978.84
2022-12-17T07:43:27.406Z,98983.06
2022-12-17T07:46:09.297Z,98989.94
2022-12-17T07:48:51.245Z,98989.53
2022-12-17T07:51:36.385Z,98995.69
2022-12-17T07:54:18.143Z,98998.94
2022-12-17T07:56:59.956Z,99002.94
2022-12-17T07:59:41.988Z,99003.88
2022-12-17T08:02:26.017Z,99018.81
2022-12-17T08:05:08.145Z,99016.19
2022-12-17T08:07:49.960Z,99015.78
2022-12-17T08:10:35.022Z,99029.19
2022-12-17T08:13:19.417Z,99026.19
2022-12-17T08:16:01.956Z,99029.19
2022-12-17T08:18:44.546Z,99025.22
2022-12-17T08:21:26.583Z,99039.75
2022-12-17T08:24:08.354Z,99038.78
2022-12-17T08:26:50.152Z,99046.59
2022-12-17T08:29:33.002Z,99050.72
2022-12-17T08:32:14.998Z,99047.81
2022-12-17T08:35:01.562Z,99055.34
2022-12-17T08:37:43.491Z,99068.34
2022-12-17T08:40:25.767Z,99052.19
2022-12-17T08:43:12.704Z,99066.00
2022-12-17T08:45:54.790Z,99061.34
2022-12-17T08:48:36.849Z,99074.63
2022-12-17T08:51:20.089Z,99075.47
2022-12-17T08:54:01.924Z,99080.66
2022-12-17T08:56:43.940Z,99087.78
2022-12-17T08:59:26.011Z,99087.66
2022-12-17T09:02:07.953Z,99091.34
2022-12-17T09:04:49.802Z,99089.16
2022-12-17T09:07:31.905Z,99096.41
2022-12-17T09:10:13.887Z,99094.38
2022-12-17T09:12:58.630Z,99094.38
2022-12-17T09:15:44.714Z,99096.69
2022-12-17T09:18:26.758Z,99096.00
2022-12-17T09:21:10.080Z,99098.75
2022-12-17T09:23:52.110Z,99101.22
2022-12-17T09:26:33.925Z,99101.06
2022-12-17T09:29:15.924Z,99094.66
2022-12-17T09:31:57.766Z,99097.94
2022-12-17T09:34:39.762Z,99106.41
2022-12-17T09:37:21.616Z,99107.50
2022-12-17T09:40:03.660Z,99119.66
2022-12-17T09:43:10.249Z,99120.28
2022-12-17T09:46:02.311Z,99122.84
2022-12-17T09:49:04.030Z,99126.81
2022-12-17T09:51:48.666Z,99116.28
2022-12-17T09:54:42.995Z,99124.91
2022-12-17T09:57:29.446Z,99124.91
2022-12-17T10:00:11.440Z,99131.34
2022-12-17T10:02:54.205Z,99129.41
2022-12-17T10:05:41.194Z,99134.09
2022-12-17T10:08:29.111Z,99129.97
2022-12-17T10:11:11.170Z,99126.94
2022-12-17T10:13:53.183Z,99129.41
2022-12-17T10:16:48.822Z,99127.38
2022-12-17T10:19:48.295Z,99128.47
2022-12-17T10:22:32.902Z,99131.13
2022-12-17T10:25:21.808Z,99134.66
2022-12-17T10:28:03.912Z,99139.72
2022-12-17T10:30:55.428Z,99143.69
2022-12-17T10:33:37.752Z,99147.16
2022-12-17T10:36:34.073Z,99157.56
2022-12-17T10:39:17.193Z,99152.22
2022-12-17T10:41:59.283Z,99160.56
2022-12-17T10:44:44.584Z,99160.44
2022-12-17T10:47:28.720Z,99161.41
2022-12-17T10:50:13.265Z,99174.84
2022-12-17T10:52:55.369Z,99171.97
2022-12-17T10:55:42.509Z,99181.56
2022-12-17T10:58:30.204Z,99181.69
2022-12-17T11:01:16.457Z,99187.16
2022-12-17T11:04:09.122Z,99180.19
2022-12-17T11:06:56.065Z,99191.94
2022-12-17T11:09:38.874Z,99196.75
2022-12-17T11:12:30.114Z,99193.63
2022-12-17T11:15:18.337Z,99195.66
2022-12-17T11:18:02.287Z,99201.94
2022-12-17T11:21:10.405Z,99205.34
2022-12-17T11:23:55.303Z,99203.44
2022-12-17T11:26:37.763Z,99207.25
2022-12-17T11:29:19.768Z,99212.59
2022-12-17T11:32:11.867Z,99221.53
2022-12-17T11:35:14.631Z,99223.44
2022-12-17T11:38:09.491Z,99222.63
2022-12-17T11:40:56.657Z,99231.38
2022-12-17T11:43:45.086Z,99232.59
2022-12-17T11:46:55.946Z,99230.38
2022-12-17T11:49:37.860Z,99227.66
2022-12-17T11:52:23.205Z,99234.19
2022-12-17T11:55:35.844Z,99230.19
2022-12-17T11:58:25.959Z,99234.59
2022-12-17T12:01:24.209Z,99230.06
2022-12-17T12:04:07.331Z,99229.63
2022-12-17T12:07:08.222Z,99239.81
2022-12-17T12:10:09.720Z,99232.78
2022-12-17T12:13:08.158Z,99237.72
2022-12-17T12:16:21.175Z,99240.03
2022-12-17T12:19:19.392Z,99245.25
2022-12-17T12:22:16.576Z,99242.41
2022-12-17T12:24:58.528Z,99242.84
2022-12-17T12:27:51.091Z,99240.78
2022-12-17T12:30:37.233Z,99242.94
2022-12-17T12:33:42.067Z,99245.81
2022-12-17T12:36:27.711Z,99249.63
2022-12-17T12:39:11.531Z,99250.44
2022-12-17T12:42:04.137Z,99260.22
2022-12-17T12:45:07.405Z,99265.53
2022-12-17T12:48:14.534Z,99272.66
2022-12-17T12:51:10.885Z,99267.63
2022-12-17T12:53:52.940Z,99271.47
2022-12-17T12:56:48.284Z,99274.00
2022-12-17T12:59:46.250Z,99275.66
2022-12-17T13:02:35.281Z,99279.06
2022-12-17T13:05:17.258Z,99277.16
2022-12-17T13:07:43.897Z,99283.75
2022-12-17T13:10:28.586Z,99282.09
2022-12-17T13:12:55.624Z,99283.84
2022-12-17T13:15:33.440Z,99300.09
2022-12-17T13:18:16.220Z,99296.91
2022-12-17T13:20:42.916Z,99294.19
2022-12-17T13:23:09.555Z,99293.59
2022-12-17T13:25:36.864Z,99297.41
2022-12-17T13:28:04.003Z,99294.38
2022-12-17T13:30:36.441Z,99296.91
2022-12-17T13:33:33.578Z,99301.19
2022-12-17T13:36:15.521Z,99302.69
2022-12-17T13:39:03.843Z,99305.91
2022-12-17T13:41:33.278Z,99306.34
2022-12-17T13:44:04.680Z,99323.56
2022-12-17T13:46:48.090Z,99326.78
2022-12-17T13:49:32.072Z,99329.19
2022-12-17T13:52:06.473Z,99329.91
2022-12-17T13:54:36.501Z,99330.03
2022-12-17T13:57:08.493Z,99336.69
2022-12-17T13:59:35.187Z,99349.06
2022-12-17T14:02:01.994Z,99343.41
2022-12-17T14:04:30.318Z,99349.63
2022-12-17T14:07:00.922Z,99346.28
2022-12-17T14:09:34.958Z,99355.66
2022-12-17T14:12:19.792Z,99359.16
2022-12-17T14:14:49.570Z,99360.91
2022-12-17T14:17:20.173Z,99362.56
2022-12-17T14:19:58.951Z,99360.22
2022-12-17T14:22:33.301Z,99357.56
2022-12-17T14:25:00.839Z,99367.00
2022-12-17T14:27:33.371Z,99361.31
2022-12-17T14:30:00.592Z,99360.09
2022-12-17T14:32:36.531Z,99368.59
2022-12-17T14:35:04.087Z,99379.38
2022-12-17T14:37:31.142Z,99372.06
2022-12-17T14:40:02.976Z,99380.63
2022-12-17T14:42:30.029Z,99374.16
2022-12-17T14:45:05.472Z,99385.03
2022-12-17T14:47:34.982Z,99388.56
2022-12-17T14:50:08.631Z,99390.03
2022-12-17T14:52:35.303Z,99385.63
2022-12-17T14:55:21.530Z,99392.84
2022-12-17T14:57:49.166Z,99394.09
2022-12-17T15:00:16.300Z,99397.44
2022-12-17T15:02:45.013Z,99406.44
2022-12-17T15:05:15.137Z,99404.44
2022-12-17T15:07:41.873Z,99415.75
2022-12-17T15:10:12.810Z,99412.84
2022-12-17T15:12:42.130Z,99423.25
2022-12-17T15:15:14.186Z,99421.84
2022-12-17T15:17:41.138Z,99423.59
2022-12-17T15:20:14.708Z,99429.78
2022-12-17T15:22:41.349Z,99431.66
2022-12-17T15:25:12.852Z,99436.38
2022-12-17T15:27:39.453Z,99435.44
2022-12-17T15:30:07.833Z,99441.06
2022-12-17T15:32:35.713Z,99449.13
2022-12-17T15:35:02.344Z,99441.31
2022-12-17T15:37:28.999Z,99442.91
2022-12-17T15:39:57.848Z,99453.50
2022-12-17T15:42:39.837Z,99451.50
2022-12-17T15:45:07.027Z,99462.97
2022-12-17T15:47:33.674Z,99453.78
2022-12-17T15:50:00.326Z,99455.09
2022-12-17T15:52:30.398Z,99454.97
2022-12-17T15:54:56.990Z,99460.84
2022-12-17T15:57:24.682Z,99461.31
2022-12-17T15:59:51.955Z,99464.44
2022-12-17T16:02:18.895Z,99462.50
2022-12-17T16:04:45.890Z,99469.38
2022-12-17T16:07:12.543Z,99476.63
2022-12-17T16:09:39.233Z,99477.31
2022-12-17T16:12:06.068Z,99478.16
2022-12-17T16:14:36.132Z,99478.63
2022-12-17T16:17:02.916Z,99486.41
2022-12-17T16:19:29.661Z,99487.59
2022-12-17T16:21:56.326Z,99497.88
2022-12-17T16:24:23.299Z,99500.94
2022-12-17T16:26:50.228Z,99492.56
2022-12-17T16:29:16.861Z,99497.66
2022-12-17T16:31:43.601Z,99504.50
2022-12-17T16:34:11.206Z,99513.66
2022-12-17T16:36:37.853Z,99513.78
2022-12-17T16:39:05.880Z,99518.50
2022-12-17T16:41:33.703Z,99510.00
2022-12-17T16:44:01.095Z,99515.56
2022-12-17T16:46:38.853Z,99508.59
2022-12-17T16:49:13.333Z,99502.72
2022-12-17T16:51:41.137Z,99503.75
2022-12-17T16:54:10.939Z,99507.66
2022-12-17T16:56:40.439Z,99520.41
2022-12-17T16:59:08.372Z,99515.69
2022-12-17T17:01:37.814Z,99518.78
2022-12-17T17:04:07.312Z,99520.66
2022-12-17T17:06:39.007Z,99525.38
2022-12-17T17:09:06.160Z,99530.00
2022-12-17T17:11:33.109Z,99537.88
2022-12-17T17:14:00.050Z,99531.88
2022-12-17T17:16:27.372Z,99529.16
2022-12-17T17:18:54.602Z,99526.22
2022-12-17T17:21:31.231Z,99524.22
2022-12-17T17:24:01.237Z,99535.22
2022-12-17T17:26:31.853Z,99534.84
2022-12-17T17:28:59.189Z,99536.25
2022-12-17T17:31:46.510Z,99533.91
2022-12-17T17:34:15.820Z,99541.19
2022-12-17T17:36:43.062Z,99541.44
2022-12-17T17:39:09.793Z,99540.16
2022-12-17T17:41:36.913Z,99544.38
2022-12-17T17:44:09.156Z,99545.91
2022-12-17T17:46:36.491Z,99555.84
2022-12-17T17:49:06.148Z,99549.69
2022-12-17T17:52:08.518Z,99559.00
2022-12-17T17:54:24.339Z,99558.41
2022-12-17T17:56:50.921Z,99562.53
2022-12-17T17:59:19.434Z,99564.66
2022-12-17T18:01:49.676Z,99561.53
2022-12-17T18:04:20.176Z,99564.69
2022-12-17T18:07:16.520Z,99568.16
2022-12-17T18:09:35.242Z,99561.53
2022-12-17T18:12:22.763Z,99569.28
2022-12-17T18:15:12.495Z,99568.56
2022-12-17T18:17:36.294Z,99569.41
2022-12-17T18:20:03.438Z,99577.56
2022-12-17T18:22:30.109Z,99577.03
2022-12-17T18:24:56.845Z,99580.41
2022-12-17T18:27:23.496Z,99581.78
2022-12-17T18:29:50.528Z,99578.69
2022-12-17T18:32:17.129Z,99588.09
2022-12-17T18:34:43.826Z,99588.59
2022-12-17T18:37:10.507Z,99593.59
2022-12-17T18:39:37.242Z,99596.75
2022-12-17T18:42:19.201Z,99608.31
2022-12-17T18:44:45.895Z,99603.13
2022-12-17T18:47:12.674Z,99609.34
2022-12-17T18:49:39.608Z,99618.28
2022-12-17T18:52:09.415Z,99621.66
2022-12-17T18:54:39.735Z,99621.50
2022-12-17T18:57:06.389Z,99630.84
2022-12-17T18:59:32.970Z,99630.03
2022-12-17T19:02:00.801Z,99616.56
2022-12-17T19:04:27.903Z,99624.84
2022-12-17T19:06:55.178Z,99628.59
2022-12-17T19:09:34.018Z,99635.31
2022-12-17T19:12:00.640Z,99638.47
2022-12-17T19:14:27.260Z,99632.72
2022-12-17T19:16:55.740Z,99635.66
2022-12-17T19:19:23.094Z,99645.28
2022-12-17T19:21:51.931Z,99646.22
2022-12-17T19:24:21.067Z,99643.72
2022-12-17T19:26:48.813Z,99647.63
2022-12-17T19:29:17.609Z,99647.72
2022-12-17T19:31:44.780Z,99642.03
2022-12-17T19:34:13.947Z,99649.47
2022-12-17T19:36:41.289Z,99655.91
2022-12-17T19:39:11.477Z,99648.38
2022-12-17T19:41:39.079Z,99649.00
2022-12-17T19:44:08.474Z,99651.09
2022-12-17T19:46:36.203Z,99657.03
2022-12-17T19:49:04.179Z,99663.09
2022-12-17T19:51:32.239Z,99663.84
2022-12-17T19:54:08.415Z,99664.50
2022-12-17T19:56:35.872Z,99664.03
2022-12-17T19:59:07.314Z,99660.44
2022-12-17T20:01:36.932Z,99663.88
2022-12-17T20:04:04.285Z,99669.53
2022-12-17T20:06:32.938Z,99670.38
2022-12-17T20:09:00.835Z,99676.91
2022-12-17T20:11:36.021Z,99681.34
2022-12-17T20:14:18.191Z,99692.25
2022-12-17T20:16:51.266Z,99696.50
2022-12-17T20:19:21.353Z,99692.34
2022-12-17T20:21:48.764Z,99703.53
2022-12-17T20:24:16.757Z,99704.72
2022-12-17T20:26:44.844Z,99708.75
2022-12-17T20:29:14.206Z,99708.66
2022-12-17T20:31:48.048Z,99711.94
2022-12-17T20:34:18.202Z,99718.13
2022-12-17T20:36:45.110Z,99716.47
2022-12-17T20:39:12.465Z,99711.16
2022-12-17T20:41:40.268Z,99716.75
2022-12-17T20:44:10.743Z,99718.84
2022-12-17T20:46:38.051Z,99718.50
2022-12-17T20:49:05.713Z,99726.72
2022-12-17T20:51:33.087Z,99725.72
2022-12-17T20:54:01.417Z,99728.06
2022-12-17T20:56:31.254Z,99729.47
2022-12-17T20:59:00.761Z,99726.25
2022-12-17T21:01:29.336Z,99729.25
2022-12-17T21:03:57.671Z,99723.78
2022-12-17T21:06:28.531Z,99725.66
2022-12-17T21:08:55.822Z,99730.56
2022-12-17T21:11:26.145Z,99728.38
2022-12-17T21:13:53.947Z,99731.69
2022-12-17T21:16:24.929Z,99737.41
2022-12-17T21:18:53.264Z,99738.09
2022-12-17T21:21:25.083Z,99742.19
2022-12-17T21:23:52.255Z,99742.78
2022-12-17T21:26:21.976Z,99752.16
2022-12-17T21:28:51.723Z,99756.88
2022-12-17T21:31:24.027Z,99751.72
2022-12-17T21:33:52.848Z,99757.97
2022-12-17T21:36:22.706Z,99761.25
2022-12-17T21:38:50.522Z,99757.59
2022-12-17T21:41:22.658Z,99757.78
2022-12-17T21:43:55.950Z,99763.47
2022-12-17T21:46:23.800Z,99770.69
2022-12-17T21:48:51.899Z,99769.38
2022-12-17T21:51:18.610Z,99771.13
2022-12-17T21:53:45.662Z,99766.09
2022-12-17T21:56:15.848Z,99769.44
2022-12-17T21:58:44.245Z,99777.41
2022-12-17T22:01:18.753Z,99779.31
2022-12-17T22:03:52.521Z,99789.75
2022-12-17T22:06:25.809Z,99783.06
2022-12-17T22:08:57.264Z,99785.19
2022-12-17T22:11:27.817Z,99784.09
2022-12-17T22:14:07.517Z,99787.50
2022-12-17T22:16:43.217Z,99783.63
2022-12-17T22:19:12.420Z,99787.53
2022-12-17T22:21:41.147Z,99789.41
2022-12-17T22:24:11.912Z,99795.66
2022-12-17T22:26:38.499Z,99794.13
2022-12-17T22:29:05.171Z,99791.25
2022-12-17T22:31:47.117Z,99794.19
2022-12-17T22:34:45.062Z,99797.59
2022-12-17T22:39:37.283Z,99797.66
2022-12-17T22:43:08.048Z,99796.25
2022-12-17T22:44:37.336Z,99802.41
2022-12-17T22:45:39.232Z,99804.00
2022-12-17T22:48:08.122Z,99805.47
2022-12-17T22:50:38.137Z,99811.25
2022-12-17T22:53:14.359Z,99805.97
2022-12-17T22:55:41.414Z,99811.00
2022-12-17T22:58:08.351Z,99799.34
2022-12-17T23:00:36.602Z,99810.41
2022-12-17T23:03:03.753Z,99807.53
2022-12-17T23:05:31.682Z,99806.41
2022-12-17T23:07:58.700Z,99806.69
2022-12-17T23:10:26.757Z,99805.75
2022-12-17T23:12:55.056Z,99804.22
2022-12-17T23:15:22.662Z,99789.38
2022-12-17T23:17:50.243Z,99797.16
2022-12-17T23:20:17.045Z,99794.84
2022-12-17T23:22:46.389Z,99803.94
2022-12-17T23:25:14.101Z,99801.66
2022-12-17T23:27:43.651Z,99804.69
2022-12-17T23:30:11.378Z,99810.44
2022-12-17T23:32:38.371Z,99810.13
2022-12-17T23:35:07.086Z,99806.75
2022-12-17T23:37:38.150Z,99808.53
2022-12-17T23:40:09.338Z,99803.75
2022-12-17T23:42:35.957Z,99802.44
2022-12-17T23:45:02.670Z,99808.59
2022-12-17T23:47:29.277Z,99800.75
2022-12-17T23:49:55.920Z,99807.34
2022-12-17T23:52:22.636Z,99799.38
2022-12-17T23:54:49.288Z,99802.50
2022-12-17T23:57:15.940Z,99802.66
2022-12-17T23:59:42.540Z,99799.50
